createdAt,value
2018-12-26T00:00:59.533Z,1013.95
2018-12-26T00:01:59.523Z,1013.94
2018-12-26T00:02:59.514Z,1013.94
2018-12-26T00:03:59.507Z,1013.91
2018-12-26T00:04:59.498Z,1013.94
2018-12-26T00:05:59.491Z,1013.90
2018-12-26T00:06:59.483Z,1013.89
2018-12-26T00:07:59.481Z,1013.94
2018-12-26T00:08:59.465Z,1013.95
2018-12-26T00:09:59.456Z,1013.94
2018-12-26T00:10:59.452Z,1013.93
2018-12-26T00:11:59.443Z,1013.99
2018-12-26T00:12:59.432Z,1014.01
2018-12-26T00:13:59.425Z,1014.03
2018-12-26T00:14:59.419Z,1014.02
2018-12-26T00:15:59.412Z,1013.99
2018-12-26T00:16:59.402Z,1014.00
2018-12-26T00:17:59.393Z,1014.05
2018-12-26T00:18:59.384Z,1014.08
2018-12-26T00:19:59.478Z,1014.10
2018-12-26T00:20:59.370Z,1013.96
2018-12-26T00:21:59.359Z,1014.01
2018-12-26T00:22:59.407Z,1013.98
2018-12-26T00:23:59.469Z,1013.97
2018-12-26T00:24:59.338Z,1014.02
2018-12-26T00:26:01.834Z,1013.98
2018-12-26T00:26:59.320Z,1014.01
2018-12-26T00:27:59.314Z,1013.98
2018-12-26T00:28:59.305Z,1013.97
2018-12-26T00:29:59.295Z,1013.97
2018-12-26T00:30:59.288Z,1013.97
2018-12-26T00:31:59.280Z,1013.98
2018-12-26T00:32:59.274Z,1013.93
2018-12-26T00:33:59.265Z,1013.92
2018-12-26T00:34:59.267Z,1013.94
2018-12-26T00:35:59.248Z,1013.94
2018-12-26T00:36:59.242Z,1013.93
2018-12-26T00:37:59.235Z,1013.95
2018-12-26T00:38:59.223Z,1013.96
2018-12-26T00:39:59.216Z,1013.88
2018-12-26T00:40:59.206Z,1013.93
2018-12-26T00:41:59.200Z,1013.95
2018-12-26T00:42:59.196Z,1013.98
2018-12-26T00:43:59.201Z,1013.93
2018-12-26T00:44:59.182Z,1013.93
2018-12-26T00:45:59.164Z,1013.85
2018-12-26T00:46:59.182Z,1013.87
2018-12-26T00:47:59.155Z,1013.92
2018-12-26T00:48:59.145Z,1013.96
2018-12-26T00:49:59.230Z,1013.89
2018-12-26T00:50:59.127Z,1013.84
2018-12-26T00:51:59.119Z,1013.92
2018-12-26T00:52:59.112Z,1013.96
2018-12-26T00:53:59.102Z,1013.94
2018-12-26T00:54:59.094Z,1013.95
2018-12-26T00:55:59.087Z,1013.96
2018-12-26T00:56:59.081Z,1013.89
2018-12-26T00:57:59.070Z,1013.97
2018-12-26T00:58:59.063Z,1013.95
2018-12-26T00:59:59.152Z,1013.96
2018-12-26T01:00:59.045Z,1014.01
2018-12-26T01:01:59.040Z,1013.98
2018-12-26T01:02:59.068Z,1013.89
2018-12-26T01:03:59.046Z,1013.96
2018-12-26T01:04:59.011Z,1013.95
2018-12-26T01:05:59.004Z,1013.97
2018-12-26T01:06:59.034Z,1013.99
2018-12-26T01:07:58.990Z,1013.96
2018-12-26T01:08:58.980Z,1013.93
2018-12-26T01:09:58.973Z,1013.98
2018-12-26T01:10:58.963Z,1013.95
2018-12-26T01:11:58.957Z,1013.98
2018-12-26T01:12:58.947Z,1013.95
2018-12-26T01:13:58.940Z,1013.93
2018-12-26T01:14:58.930Z,1013.93
2018-12-26T01:15:58.923Z,1013.94
2018-12-26T01:16:58.915Z,1013.98
2018-12-26T01:17:58.906Z,1014.01
2018-12-26T01:18:58.895Z,1013.98
2018-12-26T01:19:58.890Z,1013.97
2018-12-26T01:20:58.887Z,1013.92
2018-12-26T01:21:58.872Z,1013.95
2018-12-26T01:22:58.866Z,1013.88
2018-12-26T01:23:58.856Z,1013.93
2018-12-26T01:24:58.850Z,1013.93
2018-12-26T01:25:58.852Z,1013.91
2018-12-26T01:26:58.832Z,1013.92
2018-12-26T01:27:58.828Z,1013.96
2018-12-26T01:28:58.813Z,1014.00
2018-12-26T01:29:58.818Z,1013.95
2018-12-26T01:30:58.808Z,1014.03
2018-12-26T01:31:58.796Z,1013.99
2018-12-26T01:32:58.788Z,1013.99
2018-12-26T01:33:58.774Z,1013.98
2018-12-26T01:34:58.768Z,1013.93
2018-12-26T01:35:58.759Z,1013.96
2018-12-26T01:36:58.752Z,1013.98
2018-12-26T01:37:58.744Z,1013.98
2018-12-26T01:38:58.734Z,1013.87
2018-12-26T01:39:58.729Z,1013.96
2018-12-26T01:40:58.718Z,1014.00
2018-12-26T01:41:58.711Z,1013.95
2018-12-26T01:42:58.700Z,1013.83
2018-12-26T01:43:58.693Z,1013.89
2018-12-26T01:44:58.685Z,1013.96
2018-12-26T01:45:58.681Z,1013.98
2018-12-26T01:46:58.688Z,1014.02
2018-12-26T01:47:58.661Z,1013.99
2018-12-26T01:48:58.652Z,1014.03
2018-12-26T01:49:58.644Z,1014.03
2018-12-26T01:50:58.636Z,1013.97
2018-12-26T01:51:58.629Z,1013.98
2018-12-26T01:52:58.621Z,1014.05
2018-12-26T01:53:58.613Z,1014.00
2018-12-26T01:54:58.603Z,1014.03
2018-12-26T01:55:58.596Z,1014.06
2018-12-26T01:56:58.589Z,1014.06
2018-12-26T01:57:58.580Z,1013.98
2018-12-26T01:58:58.652Z,1014.00
2018-12-26T01:59:58.564Z,1014.14
2018-12-26T02:00:58.556Z,1014.12
2018-12-26T02:01:58.551Z,1014.14
2018-12-26T02:02:58.541Z,1014.08
2018-12-26T02:03:58.534Z,1014.08
2018-12-26T02:04:58.537Z,1014.13
2018-12-26T02:05:58.514Z,1014.13
2018-12-26T02:06:58.507Z,1014.12
2018-12-26T02:07:58.496Z,1014.12
2018-12-26T02:08:58.490Z,1014.15
2018-12-26T02:09:58.567Z,1014.14
2018-12-26T02:10:58.472Z,1014.16
2018-12-26T02:11:58.467Z,1014.10
2018-12-26T02:12:58.456Z,1014.08
2018-12-26T02:13:58.447Z,1014.06
2018-12-26T02:14:58.443Z,1014.07
2018-12-26T02:15:58.432Z,1014.12
2018-12-26T02:16:58.421Z,1014.13
2018-12-26T02:17:58.417Z,1014.15
2018-12-26T02:18:58.407Z,1014.16
2018-12-26T02:19:58.396Z,1014.20
2018-12-26T02:20:58.388Z,1014.25
2018-12-26T02:21:58.381Z,1014.20
2018-12-26T02:22:58.374Z,1014.19
2018-12-26T02:23:58.367Z,1014.23
2018-12-26T02:24:58.355Z,1014.18
2018-12-26T02:25:58.346Z,1014.19
2018-12-26T02:26:58.337Z,1014.20
2018-12-26T02:27:58.334Z,1014.17
2018-12-26T02:28:58.323Z,1014.20
2018-12-26T02:29:58.315Z,1014.24
2018-12-26T02:30:58.306Z,1014.27
2018-12-26T02:31:58.301Z,1014.23
2018-12-26T02:32:58.291Z,1014.20
2018-12-26T02:33:58.282Z,1014.26
2018-12-26T02:34:58.273Z,1014.24
2018-12-26T02:35:58.268Z,1014.21
2018-12-26T02:36:58.260Z,1014.19
2018-12-26T02:37:58.249Z,1014.19
2018-12-26T02:38:58.238Z,1014.16
2018-12-26T02:39:58.231Z,1014.18
2018-12-26T02:40:58.224Z,1014.20
2018-12-26T02:41:58.215Z,1014.16
2018-12-26T02:42:58.217Z,1014.24
2018-12-26T02:43:58.199Z,1014.11
2018-12-26T02:44:58.192Z,1014.18
2018-12-26T02:45:58.183Z,1014.14
2018-12-26T02:46:58.301Z,1014.18
2018-12-26T02:47:58.169Z,1014.17
2018-12-26T02:48:58.158Z,1014.16
2018-12-26T02:49:58.159Z,1014.22
2018-12-26T02:50:58.140Z,1014.22
2018-12-26T02:51:58.138Z,1014.16
2018-12-26T02:52:58.126Z,1014.13
2018-12-26T02:53:58.116Z,1014.13
2018-12-26T02:54:58.108Z,1014.13
2018-12-26T02:55:58.104Z,1014.19
2018-12-26T02:56:58.098Z,1014.10
2018-12-26T02:57:58.084Z,1014.06
2018-12-26T02:58:58.073Z,1014.04
2018-12-26T02:59:58.067Z,1014.11
2018-12-26T03:00:58.059Z,1014.09
2018-12-26T03:01:58.049Z,1014.07
2018-12-26T03:02:58.044Z,1014.05
2018-12-26T03:03:58.035Z,1014.00
2018-12-26T03:04:58.024Z,1014.07
2018-12-26T03:05:58.014Z,1014.00
2018-12-26T03:06:58.006Z,1013.96
2018-12-26T03:07:57.999Z,1014.01
2018-12-26T03:08:57.990Z,1014.01
2018-12-26T03:09:57.982Z,1014.02
2018-12-26T03:10:57.972Z,1014.02
2018-12-26T03:11:57.966Z,1014.12
2018-12-26T03:12:57.959Z,1014.12
2018-12-26T03:13:57.987Z,1014.12
2018-12-26T03:14:57.940Z,1014.10
2018-12-26T03:15:57.933Z,1014.12
2018-12-26T03:16:57.923Z,1014.14
2018-12-26T03:17:57.914Z,1014.11
2018-12-26T03:18:57.905Z,1014.15
2018-12-26T03:19:57.899Z,1014.13
2018-12-26T03:20:57.891Z,1014.12
2018-12-26T03:21:57.884Z,1014.15
2018-12-26T03:22:57.872Z,1014.19
2018-12-26T03:23:57.867Z,1014.21
2018-12-26T03:24:57.856Z,1014.17
2018-12-26T03:25:57.852Z,1014.19
2018-12-26T03:26:57.838Z,1014.15
2018-12-26T03:27:57.830Z,1014.16
2018-12-26T03:28:57.824Z,1014.18
2018-12-26T03:29:57.814Z,1014.21
2018-12-26T03:30:57.807Z,1014.26
2018-12-26T03:31:57.799Z,1014.25
2018-12-26T03:32:57.793Z,1014.25
2018-12-26T03:33:57.782Z,1014.24
2018-12-26T03:34:57.774Z,1014.24
2018-12-26T03:35:57.764Z,1014.22
2018-12-26T03:36:57.754Z,1014.20
2018-12-26T03:37:57.748Z,1014.18
2018-12-26T03:38:57.739Z,1014.16
2018-12-26T03:39:57.732Z,1014.14
2018-12-26T03:40:57.727Z,1014.10
2018-12-26T03:41:57.710Z,1014.07
2018-12-26T03:42:57.708Z,1014.04
2018-12-26T03:43:57.698Z,1013.99
2018-12-26T03:44:57.689Z,1013.97
2018-12-26T03:45:57.681Z,1013.97
2018-12-26T03:46:57.672Z,1013.99
2018-12-26T03:47:57.667Z,1013.99
2018-12-26T03:48:57.655Z,1014.01
2018-12-26T03:49:57.646Z,1013.99
2018-12-26T03:50:57.637Z,1013.97
2018-12-26T03:51:57.631Z,1013.97
2018-12-26T03:52:57.622Z,1013.94
2018-12-26T03:53:57.615Z,1013.94
2018-12-26T03:54:57.607Z,1013.80
2018-12-26T03:55:57.597Z,1013.79
2018-12-26T03:57:05.869Z,1013.69
2018-12-26T03:57:57.581Z,1013.61
2018-12-26T03:58:57.574Z,1013.55
2018-12-26T03:59:57.565Z,1013.44
2018-12-26T04:00:57.560Z,1013.32
2018-12-26T04:01:57.547Z,1013.32
2018-12-26T04:02:57.543Z,1013.22
2018-12-26T04:03:57.532Z,1013.26
2018-12-26T04:04:57.520Z,1013.31
2018-12-26T04:05:57.517Z,1013.37
2018-12-26T04:06:57.509Z,1013.37
2018-12-26T04:07:57.497Z,1013.34
2018-12-26T04:08:57.491Z,1013.37
2018-12-26T04:09:57.481Z,1013.44
2018-12-26T04:10:57.472Z,1013.57
2018-12-26T04:11:57.466Z,1013.62
2018-12-26T04:12:57.456Z,1013.69
2018-12-26T04:13:57.446Z,1013.78
2018-12-26T04:14:57.438Z,1013.66
2018-12-26T04:15:57.431Z,1013.74
2018-12-26T04:16:57.423Z,1013.82
2018-12-26T04:17:57.414Z,1013.77
2018-12-26T04:18:57.405Z,1013.79
2018-12-26T04:19:57.396Z,1013.80
2018-12-26T04:20:57.392Z,1013.71
2018-12-26T04:21:57.381Z,1013.70
2018-12-26T04:22:57.380Z,1013.61
2018-12-26T04:23:57.363Z,1013.70
2018-12-26T04:24:57.354Z,1013.70
2018-12-26T04:25:57.352Z,1013.74
2018-12-26T04:26:57.344Z,1013.83
2018-12-26T04:27:57.332Z,1013.83
2018-12-26T04:28:57.321Z,1013.86
2018-12-26T04:29:57.313Z,1013.90
2018-12-26T04:30:57.308Z,1013.88
2018-12-26T04:31:57.295Z,1013.87
2018-12-26T04:32:57.286Z,1013.85
2018-12-26T04:33:57.277Z,1013.85
2018-12-26T04:34:57.267Z,1013.83
2018-12-26T04:35:57.278Z,1013.84
2018-12-26T04:36:57.255Z,1013.83
2018-12-26T04:37:57.245Z,1013.96
2018-12-26T04:38:57.235Z,1013.96
2018-12-26T04:39:57.227Z,1013.92
2018-12-26T04:40:57.222Z,1013.85
2018-12-26T04:41:57.211Z,1013.82
2018-12-26T04:42:57.205Z,1013.83
2018-12-26T04:43:57.196Z,1013.88
2018-12-26T04:44:57.184Z,1013.91
2018-12-26T04:45:57.178Z,1013.89
2018-12-26T04:46:57.168Z,1013.95
2018-12-26T04:47:57.158Z,1014.03
2018-12-26T04:48:57.154Z,1013.97
2018-12-26T04:49:57.147Z,1014.01
2018-12-26T04:50:57.136Z,1013.97
2018-12-26T04:51:57.122Z,1013.93
2018-12-26T04:52:57.129Z,1013.95
2018-12-26T04:53:57.118Z,1013.91
2018-12-26T04:54:57.098Z,1013.92
2018-12-26T04:55:57.091Z,1013.95
2018-12-26T04:56:57.095Z,1013.95
2018-12-26T04:57:57.074Z,1014.02
2018-12-26T04:58:57.065Z,1013.98
2018-12-26T04:59:57.058Z,1014.03
2018-12-26T05:00:57.048Z,1013.94
2018-12-26T05:01:57.041Z,1013.96
2018-12-26T05:02:57.033Z,1013.97
2018-12-26T05:03:57.025Z,1013.93
2018-12-26T05:04:57.015Z,1013.96
2018-12-26T05:05:57.006Z,1013.88
2018-12-26T05:06:56.998Z,1013.91
2018-12-26T05:07:56.990Z,1013.99
2018-12-26T05:08:56.983Z,1013.97
2018-12-26T05:09:56.974Z,1014.01
2018-12-26T05:10:56.965Z,1014.00
2018-12-26T05:11:56.955Z,1013.97
2018-12-26T05:12:56.955Z,1013.94
2018-12-26T05:13:56.939Z,1014.00
2018-12-26T05:14:56.933Z,1014.00
2018-12-26T05:15:56.920Z,1013.98
2018-12-26T05:16:56.912Z,1014.03
2018-12-26T05:17:56.905Z,1014.03
2018-12-26T05:18:56.897Z,1014.04
2018-12-26T05:19:56.884Z,1014.01
2018-12-26T05:20:56.878Z,1014.01
2018-12-26T05:21:56.867Z,1013.99
2018-12-26T05:22:56.860Z,1013.97
2018-12-26T05:23:56.853Z,1013.91
2018-12-26T05:24:56.843Z,1013.93
2018-12-26T05:25:56.834Z,1013.88
2018-12-26T05:26:56.825Z,1013.88
2018-12-26T05:27:56.817Z,1013.90
2018-12-26T05:28:56.813Z,1013.89
2018-12-26T05:29:56.799Z,1013.92
2018-12-26T05:30:56.793Z,1013.94
2018-12-26T05:31:56.783Z,1014.02
2018-12-26T05:32:56.777Z,1014.04
2018-12-26T05:33:56.767Z,1014.01
2018-12-26T05:34:56.758Z,1014.02
2018-12-26T05:35:56.748Z,1013.97
2018-12-26T05:36:56.741Z,1014.05
2018-12-26T05:37:56.733Z,1014.03
2018-12-26T05:38:56.724Z,1014.01
2018-12-26T05:39:56.714Z,1014.05
2018-12-26T05:40:56.706Z,1014.06
2018-12-26T05:41:56.698Z,1014.05
2018-12-26T05:42:56.687Z,1014.08
2018-12-26T05:43:56.682Z,1013.99
2018-12-26T05:44:56.673Z,1013.99
2018-12-26T05:45:56.661Z,1014.00
2018-12-26T05:46:56.651Z,1013.95
2018-12-26T05:47:56.645Z,1013.90
2018-12-26T05:48:56.639Z,1014.01
2018-12-26T05:49:56.723Z,1013.95
2018-12-26T05:50:56.621Z,1013.94
2018-12-26T05:51:56.610Z,1014.00
2018-12-26T05:52:56.611Z,1014.01
2018-12-26T05:53:56.592Z,1014.02
2018-12-26T05:54:56.581Z,1014.04
2018-12-26T05:55:56.581Z,1014.03
2018-12-26T05:56:56.585Z,1014.07
2018-12-26T05:57:56.558Z,1014.02
2018-12-26T05:58:56.552Z,1014.01
2018-12-26T05:59:56.543Z,1014.05
2018-12-26T06:00:56.536Z,1014.02
2018-12-26T06:01:56.525Z,1014.07
2018-12-26T06:02:56.521Z,1014.07
2018-12-26T06:03:56.510Z,1014.08
2018-12-26T06:04:56.499Z,1014.08
2018-12-26T06:05:56.490Z,1014.03
2018-12-26T06:06:56.486Z,1014.05
2018-12-26T06:07:56.476Z,1014.03
2018-12-26T06:08:56.467Z,1013.99
2018-12-26T06:09:56.455Z,1014.01
2018-12-26T06:10:56.453Z,1014.01
2018-12-26T06:11:56.440Z,1014.03
2018-12-26T06:12:56.430Z,1013.95
2018-12-26T06:13:56.422Z,1013.96
2018-12-26T06:14:56.417Z,1013.99
2018-12-26T06:15:56.406Z,1013.99
2018-12-26T06:16:56.395Z,1013.96
2018-12-26T06:17:56.385Z,1014.00
2018-12-26T06:18:56.383Z,1013.99
2018-12-26T06:19:56.373Z,1014.03
2018-12-26T06:20:56.361Z,1014.00
2018-12-26T06:21:56.354Z,1013.97
2018-12-26T06:22:56.343Z,1014.00
2018-12-26T06:23:56.333Z,1013.99
2018-12-26T06:24:56.330Z,1013.95
2018-12-26T06:25:56.319Z,1013.96
2018-12-26T06:26:56.311Z,1013.95
2018-12-26T06:27:56.304Z,1014.01
2018-12-26T06:28:56.298Z,1013.96
2018-12-26T06:29:56.284Z,1013.97
2018-12-26T06:30:56.277Z,1013.92
2018-12-26T06:31:56.273Z,1013.95
2018-12-26T06:32:56.259Z,1013.98
2018-12-26T06:33:56.251Z,1013.97
2018-12-26T06:34:56.241Z,1013.93
2018-12-26T06:35:56.235Z,1013.98
2018-12-26T06:36:56.226Z,1013.94
2018-12-26T06:37:56.215Z,1013.94
2018-12-26T06:38:56.206Z,1013.96
2018-12-26T06:39:56.198Z,1013.96
2018-12-26T06:40:56.191Z,1013.93
2018-12-26T06:41:56.187Z,1013.95
2018-12-26T06:42:56.174Z,1013.90
2018-12-26T06:43:56.164Z,1013.95
2018-12-26T06:44:56.157Z,1013.97
2018-12-26T06:45:56.150Z,1013.94
2018-12-26T06:46:56.139Z,1013.93
2018-12-26T06:47:56.130Z,1013.96
2018-12-26T06:48:56.121Z,1013.97
2018-12-26T06:49:56.114Z,1013.93
2018-12-26T06:50:56.104Z,1013.91
2018-12-26T06:51:56.094Z,1013.90
2018-12-26T06:52:56.085Z,1013.95
2018-12-26T06:53:56.078Z,1013.93
2018-12-26T06:54:56.067Z,1013.93
2018-12-26T06:55:56.058Z,1013.96
2018-12-26T06:56:56.054Z,1013.91
2018-12-26T06:57:59.996Z,1013.92
2018-12-26T06:58:56.034Z,1013.95
2018-12-26T06:59:56.024Z,1013.94
2018-12-26T07:00:56.014Z,1013.90
2018-12-26T07:01:56.007Z,1013.92
2018-12-26T07:02:56.000Z,1013.93
2018-12-26T07:03:55.984Z,1013.92
2018-12-26T07:04:55.981Z,1013.90
2018-12-26T07:05:55.971Z,1013.93
2018-12-26T07:06:55.963Z,1013.90
2018-12-26T07:07:55.955Z,1013.87
2018-12-26T07:08:55.946Z,1013.86
2018-12-26T07:09:55.938Z,1013.92
2018-12-26T07:10:55.924Z,1013.90
2018-12-26T07:11:55.923Z,1013.91
2018-12-26T07:12:55.908Z,1013.87
2018-12-26T07:13:55.900Z,1013.93
2018-12-26T07:14:55.892Z,1013.96
2018-12-26T07:15:55.884Z,1013.96
2018-12-26T07:16:55.876Z,1013.99
2018-12-26T07:17:55.867Z,1014.00
2018-12-26T07:18:55.864Z,1014.01
2018-12-26T07:19:55.852Z,1013.97
2018-12-26T07:20:55.842Z,1014.00
2018-12-26T07:21:55.831Z,1014.00
2018-12-26T07:22:55.819Z,1014.00
2018-12-26T07:23:55.813Z,1014.06
2018-12-26T07:24:55.807Z,1014.01
2018-12-26T07:25:55.796Z,1014.02
2018-12-26T07:26:55.787Z,1014.02
2018-12-26T07:27:55.780Z,1014.03
2018-12-26T07:28:55.777Z,1014.03
2018-12-26T07:29:55.761Z,1013.98
2018-12-26T07:30:55.752Z,1013.99
2018-12-26T07:31:55.745Z,1013.99
2018-12-26T07:32:55.736Z,1014.00
2018-12-26T07:33:55.725Z,1013.99
2018-12-26T07:34:55.721Z,1013.97
2018-12-26T07:35:55.716Z,1013.96
2018-12-26T07:36:55.703Z,1013.98
2018-12-26T07:37:55.693Z,1013.99
2018-12-26T07:38:55.682Z,1014.01
2018-12-26T07:39:55.675Z,1013.96
2018-12-26T07:40:55.666Z,1014.02
2018-12-26T07:41:55.658Z,1013.97
2018-12-26T07:42:55.650Z,1013.93
2018-12-26T07:43:55.642Z,1013.96
2018-12-26T07:44:55.634Z,1013.96
2018-12-26T07:45:55.622Z,1013.96
2018-12-26T07:46:55.617Z,1013.92
2018-12-26T07:47:55.608Z,1013.91
2018-12-26T07:48:55.598Z,1013.98
2018-12-26T07:49:55.592Z,1013.92
2018-12-26T07:50:55.580Z,1013.90
2018-12-26T07:51:55.572Z,1013.94
2018-12-26T07:52:55.564Z,1013.94
2018-12-26T07:53:55.553Z,1013.90
2018-12-26T07:54:55.545Z,1013.92
2018-12-26T07:55:55.539Z,1013.91
2018-12-26T07:56:55.539Z,1013.91
2018-12-26T07:57:55.522Z,1013.94
2018-12-26T07:58:55.513Z,1013.91
2018-12-26T07:59:55.499Z,1013.89
2018-12-26T08:00:55.497Z,1013.95
2018-12-26T08:01:55.484Z,1013.96
2018-12-26T08:02:55.476Z,1013.96
2018-12-26T08:03:55.467Z,1014.00
2018-12-26T08:04:55.462Z,1014.03
2018-12-26T08:05:55.451Z,1014.04
2018-12-26T08:06:55.442Z,1014.02
2018-12-26T08:07:55.433Z,1014.03
2018-12-26T08:08:55.423Z,1014.06
2018-12-26T08:09:55.414Z,1014.04
2018-12-26T08:10:55.425Z,1014.01
2018-12-26T08:11:55.425Z,1014.00
2018-12-26T08:12:55.389Z,1014.00
2018-12-26T08:13:55.383Z,1014.01
2018-12-26T08:14:55.374Z,1014.04
2018-12-26T08:15:55.362Z,1013.98
2018-12-26T08:16:55.355Z,1013.95
2018-12-26T08:17:55.340Z,1013.94
2018-12-26T08:18:55.335Z,1013.94
2018-12-26T08:19:55.323Z,1013.94
2018-12-26T08:20:55.318Z,1013.94
2018-12-26T08:21:55.306Z,1013.90
2018-12-26T08:22:55.298Z,1013.92
2018-12-26T08:23:55.291Z,1013.91
2018-12-26T08:24:55.281Z,1013.87
2018-12-26T08:25:55.267Z,1013.87
2018-12-26T08:26:55.269Z,1013.96
2018-12-26T08:27:55.254Z,1013.96
2018-12-26T08:28:55.247Z,1013.97
2018-12-26T08:29:55.236Z,1013.98
2018-12-26T08:30:55.231Z,1014.03
2018-12-26T08:31:55.219Z,1014.05
2018-12-26T08:32:55.208Z,1014.03
2018-12-26T08:33:55.201Z,1014.05
2018-12-26T08:34:55.192Z,1014.05
2018-12-26T08:35:55.183Z,1014.05
2018-12-26T08:36:55.174Z,1014.02
2018-12-26T08:37:55.163Z,1014.02
2018-12-26T08:38:55.155Z,1014.03
2018-12-26T08:39:55.152Z,1014.10
2018-12-26T08:40:55.139Z,1014.09
2018-12-26T08:41:55.133Z,1014.13
2018-12-26T08:42:55.121Z,1014.13
2018-12-26T08:43:55.111Z,1014.11
2018-12-26T08:44:55.103Z,1014.10
2018-12-26T08:45:55.106Z,1014.11
2018-12-26T08:46:55.084Z,1014.05
2018-12-26T08:47:55.117Z,1014.06
2018-12-26T08:48:55.069Z,1014.00
2018-12-26T08:49:55.059Z,1013.99
2018-12-26T08:50:55.050Z,1013.92
2018-12-26T08:51:55.040Z,1013.95
2018-12-26T08:52:55.038Z,1013.99
2018-12-26T08:53:55.023Z,1013.98
2018-12-26T08:54:55.017Z,1013.94
2018-12-26T08:55:55.003Z,1013.95
2018-12-26T08:56:54.997Z,1013.96
2018-12-26T08:57:54.989Z,1013.93
2018-12-26T08:58:54.978Z,1013.96
2018-12-26T08:59:54.968Z,1013.98
2018-12-26T09:00:54.959Z,1013.99
2018-12-26T09:01:54.952Z,1014.01
2018-12-26T09:02:54.943Z,1014.03
2018-12-26T09:03:54.933Z,1013.99
2018-12-26T09:04:54.929Z,1014.04
2018-12-26T09:05:54.917Z,1014.08
2018-12-26T09:06:54.909Z,1014.01
2018-12-26T09:07:54.898Z,1013.97
2018-12-26T09:08:54.890Z,1013.96
2018-12-26T09:09:54.879Z,1013.91
2018-12-26T09:10:54.869Z,1013.93
2018-12-26T09:11:54.863Z,1013.92
2018-12-26T09:12:54.855Z,1013.98
2018-12-26T09:13:54.846Z,1013.93
2018-12-26T09:14:54.840Z,1013.93
2018-12-26T09:15:54.832Z,1013.95
2018-12-26T09:16:54.819Z,1013.96
2018-12-26T09:17:54.811Z,1013.98
2018-12-26T09:18:54.800Z,1013.91
2018-12-26T09:19:54.792Z,1014.00
2018-12-26T09:20:54.783Z,1013.98
2018-12-26T09:21:54.770Z,1013.93
2018-12-26T09:22:54.764Z,1013.90
2018-12-26T09:23:54.842Z,1013.89
2018-12-26T09:24:54.749Z,1013.85
2018-12-26T09:25:54.735Z,1013.94
2018-12-26T09:26:54.724Z,1013.92
2018-12-26T09:27:54.718Z,1013.89
2018-12-26T09:28:54.719Z,1013.89
2018-12-26T09:29:54.718Z,1013.89
2018-12-26T09:30:54.702Z,1013.87
2018-12-26T09:31:54.685Z,1013.90
2018-12-26T09:32:54.676Z,1013.89
2018-12-26T09:33:54.667Z,1013.87
2018-12-26T09:34:54.658Z,1013.86
2018-12-26T09:35:54.649Z,1013.84
2018-12-26T09:36:54.643Z,1013.80
2018-12-26T09:37:54.631Z,1013.86
2018-12-26T09:38:54.623Z,1013.83
2018-12-26T09:39:54.614Z,1013.80
2018-12-26T09:40:54.608Z,1013.79
2018-12-26T09:41:54.603Z,1013.74
2018-12-26T09:42:54.588Z,1013.78
2018-12-26T09:43:54.580Z,1013.78
2018-12-26T09:44:54.836Z,1013.78
2018-12-26T09:45:54.560Z,1013.80
2018-12-26T09:46:54.554Z,1013.76
2018-12-26T09:47:54.546Z,1013.75
2018-12-26T09:48:54.539Z,1013.71
2018-12-26T09:49:54.599Z,1013.75
2018-12-26T09:50:54.537Z,1013.74
2018-12-26T09:51:54.514Z,1013.73
2018-12-26T09:52:54.507Z,1013.68
2018-12-26T09:53:54.488Z,1013.68
2018-12-26T09:54:54.483Z,1013.69
2018-12-26T09:55:54.486Z,1013.68
2018-12-26T09:56:54.465Z,1013.71
2018-12-26T09:57:54.455Z,1013.68
2018-12-26T09:58:54.448Z,1013.73
2018-12-26T09:59:54.445Z,1013.71
2018-12-26T10:00:54.431Z,1013.76
2018-12-26T10:01:54.496Z,1013.70
2018-12-26T10:02:54.412Z,1013.72
2018-12-26T10:03:54.406Z,1013.74
2018-12-26T10:04:54.397Z,1013.70
2018-12-26T10:05:54.386Z,1013.68
2018-12-26T10:06:54.384Z,1013.67
2018-12-26T10:07:54.372Z,1013.66
2018-12-26T10:08:54.362Z,1013.66
2018-12-26T10:09:54.352Z,1013.66
2018-12-26T10:10:54.346Z,1013.65
2018-12-26T10:11:54.339Z,1013.57
2018-12-26T10:12:54.326Z,1013.58
2018-12-26T10:13:54.317Z,1013.53
2018-12-26T10:14:54.309Z,1013.55
2018-12-26T10:15:54.303Z,1013.53
2018-12-26T10:16:54.295Z,1013.55
2018-12-26T10:17:54.284Z,1013.58
2018-12-26T10:18:54.277Z,1013.55
2018-12-26T10:19:54.268Z,1013.49
2018-12-26T10:20:54.259Z,1013.46
2018-12-26T10:21:54.250Z,1013.52
2018-12-26T10:22:54.241Z,1013.54
2018-12-26T10:23:54.233Z,1013.51
2018-12-26T10:24:54.225Z,1013.52
2018-12-26T10:25:54.216Z,1013.53
2018-12-26T10:26:54.216Z,1013.53
2018-12-26T10:27:54.205Z,1013.47
2018-12-26T10:29:00.956Z,1013.44
2018-12-26T10:29:54.185Z,1013.52
2018-12-26T10:30:54.174Z,1013.44
2018-12-26T10:31:54.165Z,1013.46
2018-12-26T10:32:54.158Z,1013.45
2018-12-26T10:33:54.186Z,1013.43
2018-12-26T10:34:54.144Z,1013.41
2018-12-26T10:35:54.134Z,1013.41
2018-12-26T10:36:54.123Z,1013.42
2018-12-26T10:37:54.116Z,1013.38
2018-12-26T10:38:54.108Z,1013.42
2018-12-26T10:39:54.102Z,1013.43
2018-12-26T10:40:54.096Z,1013.41
2018-12-26T10:41:54.084Z,1013.35
2018-12-26T10:42:54.076Z,1013.35
2018-12-26T10:43:54.070Z,1013.33
2018-12-26T10:44:54.060Z,1013.27
2018-12-26T10:45:54.054Z,1013.27
2018-12-26T10:46:54.041Z,1013.32
2018-12-26T10:47:54.035Z,1013.31
2018-12-26T10:48:54.025Z,1013.33
2018-12-26T10:49:54.019Z,1013.30
2018-12-26T10:50:54.018Z,1013.32
2018-12-26T10:51:54.001Z,1013.34
2018-12-26T10:52:53.994Z,1013.35
2018-12-26T10:53:53.985Z,1013.31
2018-12-26T10:54:53.977Z,1013.31
2018-12-26T10:55:53.969Z,1013.33
2018-12-26T10:56:53.961Z,1013.27
2018-12-26T10:57:53.947Z,1013.22
2018-12-26T10:58:53.945Z,1013.18
2018-12-26T10:59:53.980Z,1013.18
2018-12-26T11:00:53.930Z,1013.17
2018-12-26T11:01:53.921Z,1013.20
2018-12-26T11:02:53.908Z,1013.16
2018-12-26T11:03:53.905Z,1013.17
2018-12-26T11:04:53.896Z,1013.18
2018-12-26T11:05:53.890Z,1013.15
2018-12-26T11:06:53.880Z,1013.18
2018-12-26T11:07:53.872Z,1013.16
2018-12-26T11:08:53.866Z,1013.13
2018-12-26T11:09:53.856Z,1013.12
2018-12-26T11:10:53.854Z,1013.12
2018-12-26T11:11:53.840Z,1013.15
2018-12-26T11:12:53.834Z,1013.12
2018-12-26T11:13:53.823Z,1013.11
2018-12-26T11:14:53.817Z,1013.09
2018-12-26T11:15:53.809Z,1013.09
2018-12-26T11:16:53.805Z,1013.05
2018-12-26T11:17:53.792Z,1013.06
2018-12-26T11:18:53.782Z,1013.03
2018-12-26T11:19:53.777Z,1013.03
2018-12-26T11:20:53.769Z,1013.03
2018-12-26T11:21:53.766Z,1013.01
2018-12-26T11:22:53.749Z,1013.03
2018-12-26T11:23:53.746Z,1013.00
2018-12-26T11:24:53.738Z,1013.01
2018-12-26T11:25:53.739Z,1012.98
2018-12-26T11:26:53.720Z,1012.99
2018-12-26T11:27:53.718Z,1012.99
2018-12-26T11:28:53.713Z,1012.98
2018-12-26T11:29:53.697Z,1012.99
2018-12-26T11:30:53.687Z,1012.99
2018-12-26T11:31:53.679Z,1012.99
2018-12-26T11:32:53.674Z,1012.97
2018-12-26T11:33:53.666Z,1012.92
2018-12-26T11:34:53.661Z,1012.97
2018-12-26T11:35:53.651Z,1012.93
2018-12-26T11:36:53.641Z,1012.89
2018-12-26T11:37:53.638Z,1012.93
2018-12-26T11:38:53.626Z,1012.86
2018-12-26T11:39:53.621Z,1012.87
2018-12-26T11:40:53.718Z,1012.89
2018-12-26T11:41:53.604Z,1012.84
2018-12-26T11:42:53.595Z,1012.80
2018-12-26T11:43:53.585Z,1012.81
2018-12-26T11:44:53.578Z,1012.75
2018-12-26T11:45:53.567Z,1012.79
2018-12-26T11:46:53.563Z,1012.78
2018-12-26T11:47:53.557Z,1012.75
2018-12-26T11:48:53.549Z,1012.74
2018-12-26T11:49:53.543Z,1012.76
2018-12-26T11:50:53.533Z,1012.71
2018-12-26T11:51:53.526Z,1012.74
2018-12-26T11:52:53.521Z,1012.74
2018-12-26T11:53:53.508Z,1012.69
2018-12-26T11:54:53.502Z,1012.69
2018-12-26T11:55:53.497Z,1012.65
2018-12-26T11:56:53.488Z,1012.68
2018-12-26T11:57:53.482Z,1012.65
2018-12-26T11:58:53.472Z,1012.64
2018-12-26T11:59:53.462Z,1012.66
2018-12-26T12:00:53.458Z,1012.71
2018-12-26T12:01:53.449Z,1012.62
2018-12-26T12:02:53.560Z,1012.60
2018-12-26T12:03:53.435Z,1012.60
2018-12-26T12:04:53.426Z,1012.61
2018-12-26T12:05:53.417Z,1012.66